Time;durP1;ratioP1;P1;durP2;ratioP2;P2;SDS_P1;SDS_P2;PMS_P1;PMS_P2;Temp;Humidity;BMP_temperature;BMP_pressure;BME280_temperature;BME280_humidity;BME280_pressure;Samples;Min_cycle;Max_cycle;Signal;HPM_P1;HPM_P2
2022/11/29 00:00:58;;;;;;;206.13;119.85;;;1.80;99.90;;;;;;5074570;28;20071;-77
2022/11/29 00:03:26;;;;;;;185.85;111.03;;;1.80;99.90;;;;;;5091474;28;20040;-78
2022/11/29 00:05:54;;;;;;;175.50;102.68;;;1.70;99.90;;;;;;5093177;28;20040;-79
2022/11/29 00:08:24;;;;;;;172.05;102.38;;;1.70;99.90;;;;;;5093782;28;20553;-78
2022/11/29 00:10:51;;;;;;;178.50;106.80;;;1.60;99.90;;;;;;5096485;28;20056;-78
2022/11/29 00:13:17;;;;;;;184.88;110.53;;;1.60;99.90;;;;;;5092352;28;20123;-79
2022/11/29 00:15:46;;;;;;;194.80;117.05;;;1.60;99.90;;;;;;5093869;28;20036;-78
2022/11/29 00:18:15;;;;;;;199.45;114.45;;;1.50;99.90;;;;;;5095271;28;20105;-79
2022/11/29 00:20:43;;;;;;;195.35;115.03;;;1.40;99.90;;;;;;5094026;28;20131;-78
2022/11/29 00:23:10;;;;;;;204.00;116.13;;;1.50;99.90;;;;;;5093074;28;20040;-79
2022/11/29 00:25:39;;;;;;;216.95;127.53;;;1.50;99.90;;;;;;5095390;28;20097;-78
2022/11/29 00:28:07;;;;;;;192.10;109.32;;;1.40;99.90;;;;;;5095383;28;20105;-78
2022/11/29 00:30:34;;;;;;;201.25;116.85;;;1.40;99.90;;;;;;5074638;28;20036;-78
2022/11/29 00:33:02;;;;;;;170.48;102.30;;;1.40;99.90;;;;;;5091848;28;20492;-79
2022/11/29 00:35:29;;;;;;;160.38;92.85;;;1.40;99.90;;;;;;5100642;28;20042;-81
2022/11/29 00:37:57;;;;;;;176.02;101.97;;;1.40;99.90;;;;;;5099742;28;20032;-77
2022/11/29 00:40:24;;;;;;;166.77;96.43;;;1.40;99.90;;;;;;5095721;28;20048;-77
2022/11/29 00:42:53;;;;;;;159.57;92.18;;;1.40;99.90;;;;;;5092849;28;20082;-78
2022/11/29 00:45:21;;;;;;;150.70;85.30;;;1.40;99.90;;;;;;5092272;28;20097;-80
2022/11/29 00:47:48;;;;;;;139.52;79.28;;;1.40;99.90;;;;;;5092662;28;20040;-77
2022/11/29 00:50:17;;;;;;;138.45;78.63;;;1.40;99.90;;;;;;5092992;28;20044;-76
2022/11/29 00:52:45;;;;;;;132.40;74.50;;;1.40;99.90;;;;;;5091415;28;20067;-78
2022/11/29 00:55:12;;;;;;;128.40;74.82;;;1.40;99.90;;;;;;5092655;28;20050;-77
2022/11/29 00:57:39;;;;;;;133.50;75.25;;;1.40;99.90;;;;;;5097266;28;20082;-78
2022/11/29 01:00:09;;;;;;;131.07;74.60;;;1.40;99.90;;;;;;5108709;28;20048;-78
2022/11/29 01:02:37;;;;;;;143.90;80.68;;;1.50;99.90;;;;;;5105160;28;20103;-77
2022/11/29 01:05:05;;;;;;;144.13;81.80;;;1.50;99.90;;;;;;5100648;28;20541;-78
2022/11/29 01:07:32;;;;;;;146.60;79.45;;;1.50;99.90;;;;;;5100060;28;20044;-78
2022/11/29 01:09:59;;;;;;;154.25;82.85;;;1.50;99.90;;;;;;5103270;28;20115;-78
2022/11/29 01:12:27;;;;;;;132.43;75.10;;;1.50;99.90;;;;;;5091573;28;20441;-78
2022/11/29 01:14:54;;;;;;;131.85;71.65;;;1.50;99.90;;;;;;5092196;28;20127;-77
2022/11/29 01:17:23;;;;;;;123.55;69.93;;;1.40;99.90;;;;;;5091726;28;20040;-77
2022/11/29 01:19:50;;;;;;;119.68;70.60;;;1.40;99.90;;;;;;5091728;28;20117;-77
2022/11/29 01:22:18;;;;;;;125.47;74.13;;;1.40;99.90;;;;;;5090911;28;20034;-77
2022/11/29 01:24:45;;;;;;;141.13;78.07;;;1.40;99.90;;;;;;5090828;28;20048;-78
2022/11/29 01:27:13;;;;;;;130.50;77.20;;;1.30;99.90;;;;;;5091084;28;20051;-77
2022/11/29 01:29:40;;;;;;;139.77;77.28;;;1.40;99.90;;;;;;5091185;28;20082;-78
2022/11/29 01:32:07;;;;;;;138.05;78.47;;;1.30;99.90;;;;;;5090829;28;20048;-79
2022/11/29 01:34:37;;;;;;;142.52;83.60;;;1.30;99.90;;;;;;5091058;28;20094;-77
2022/11/29 01:37:04;;;;;;;147.13;79.95;;;1.30;99.90;;;;;;5090595;28;20712;-78
2022/11/29 01:39:31;;;;;;;135.75;80.68;;;1.30;99.90;;;;;;5091102;28;20090;-79
2022/11/29 01:41:59;;;;;;;122.03;70.82;;;1.30;99.90;;;;;;5089409;28;20043;-78
2022/11/29 01:45:06;;;;;;;124.10;73.15;;;1.30;99.90;;;;;;5090925;28;20054;-78
2022/11/29 01:47:35;;;;;;;133.80;80.95;;;1.40;99.90;;;;;;5090329;28;20040;-77
2022/11/29 01:50:05;;;;;;;130.95;78.82;;;1.30;99.90;;;;;;5090060;28;20048;-77
2022/11/29 01:52:33;;;;;;;137.70;82.88;;;1.40;99.90;;;;;;5089885;28;20487;-77
2022/11/29 01:55:04;;;;;;;131.35;79.45;;;1.40;99.90;;;;;;5092465;28;20048;-79
2022/11/29 01:57:33;;;;;;;135.18;80.47;;;1.40;99.90;;;;;;5092742;28;20044;-80
2022/11/29 02:00:05;;;;;;;100.18;58.97;;;1.50;99.90;;;;;;5083096;22;20048;-77
2022/11/29 02:02:43;;;;;;;105.50;59.17;;;1.50;99.90;;;;;;5059855;28;20123;-76
2022/11/29 02:05:14;;;;;;;107.07;59.30;;;1.40;99.90;;;;;;5059666;28;20048;-78
2022/11/29 02:07:44;;;;;;;111.68;63.20;;;1.40;99.90;;;;;;5060110;28;20461;-77
2022/11/29 02:10:11;;;;;;;128.18;71.40;;;1.40;99.90;;;;;;5060322;28;20044;-78
2022/11/29 02:12:52;;;;;;;117.72;67.88;;;1.40;99.90;;;;;;5059333;28;20037;-77
2022/11/29 02:15:29;;;;;;;166.45;88.80;;;1.40;99.90;;;;;;5060554;28;20041;-76
2022/11/29 02:18:08;;;;;;;165.10;89.07;;;1.40;99.90;;;;;;5060423;28;20041;-77
2022/11/29 02:21:11;;;;;;;138.00;78.30;;;1.40;99.90;;;;;;5059857;28;20508;-75
2022/11/29 02:24:27;;;;;;;134.60;78.88;;;1.40;99.90;;;;;;5058971;28;20646;-78
2022/11/29 02:27:05;;;;;;;137.60;77.70;;;1.30;99.90;;;;;;5059217;28;20041;-79
2022/11/29 02:30:03;;;;;;;121.53;74.97;;;1.30;99.90;;;;;;5061818;28;20044;-78
2022/11/29 02:33:03;;;;;;;129.77;75.07;;;1.30;99.90;;;;;;5061099;28;20554;-77
2022/11/29 02:36:14;;;;;;;139.88;78.20;;;1.30;99.90;;;;;;5060799;28;20093;-79
2022/11/29 02:39:18;;;;;;;184.85;107.45;;;1.40;99.90;;;;;;5018477;28;20106;-76
2022/11/29 02:42:02;;;;;;;172.75;99.18;;;1.40;99.90;;;;;;5016640;28;20137;-78
2022/11/29 02:44:55;;;;;;;185.63;99.05;;;1.40;99.90;;;;;;5054296;28;20056;-77
2022/11/29 02:47:32;;;;;;;263.98;124.53;;;1.60;99.90;;;;;;5057972;28;20475;-79
2022/11/29 02:50:25;;;;;;;308.10;142.15;;;1.70;99.90;;;;;;5057939;28;20044;-77
2022/11/29 02:53:02;;;;;;;303.00;135.18;;;1.80;99.90;;;;;;5059027;28;20579;-77
2022/11/29 02:55:37;;;;;;;312.73;139.43;;;1.90;99.90;;;;;;5059201;28;20041;-78
2022/11/29 02:58:15;;;;;;;308.33;134.88;;;2.00;99.90;;;;;;5058735;28;20074;-77
2022/11/29 03:00:49;;;;;;;310.75;130.75;;;2.00;99.90;;;;;;5059787;28;20053;-75
2022/11/29 03:03:23;;;;;;;299.23;128.48;;;1.90;99.90;;;;;;5061066;28;20044;-78
2022/11/29 03:05:59;;;;;;;278.75;124.97;;;1.90;99.90;;;;;;5060643;28;20123;-77
2022/11/29 03:08:29;;;;;;;;;;;1.90;99.90;;;;;;5059758;28;20045;-77
2022/11/29 03:11:03;;;;;;;272.45;120.38;;;2.00;99.90;;;;;;5059349;28;20376;-73
2022/11/29 03:13:45;;;;;;;260.55;121.20;;;2.00;99.90;;;;;;5059511;28;20449;-75
2022/11/29 03:16:23;;;;;;;249.13;114.15;;;2.10;99.90;;;;;;5056962;28;20102;-77
2022/11/29 03:19:00;;;;;;;275.85;123.78;;;2.10;99.90;;;;;;5059018;28;20229;-78
2022/11/29 03:21:40;;;;;;;303.45;124.43;;;2.10;99.90;;;;;;5058262;28;20037;-77
2022/11/29 03:24:13;;;;;;;295.05;124.18;;;2.10;99.90;;;;;;5060773;28;20037;-76
2022/11/29 03:26:45;;;;;;;254.85;110.15;;;2.00;99.90;;;;;;5058703;28;20476;-77
2022/11/29 03:29:21;;;;;;;387.38;130.00;;;1.90;99.90;;;;;;5056567;28;20105;-77
2022/11/29 03:31:56;;;;;;;249.32;110.85;;;1.90;99.90;;;;;;5059152;28;20090;-76
2022/11/29 03:34:35;;;;;;;254.73;111.47;;;1.90;99.90;;;;;;5059681;28;20095;-77
2022/11/29 03:37:14;;;;;;;238.80;110.30;;;1.90;99.90;;;;;;5056987;28;20041;-77
2022/11/29 03:39:50;;;;;;;234.63;106.43;;;1.90;99.90;;;;;;5059788;28;20040;-77
2022/11/29 03:42:24;;;;;;;210.70;94.22;;;2.00;99.90;;;;;;5056800;28;20043;-77
2022/11/29 03:44:58;;;;;;;190.50;89.63;;;1.90;99.90;;;;;;5059228;28;20083;-73
2022/11/29 03:47:30;;;;;;;167.57;83.45;;;1.90;99.90;;;;;;5070999;28;20044;-75
2022/11/29 03:50:03;;;;;;;174.93;84.45;;;1.80;99.90;;;;;;5075680;28;20044;-77
2022/11/29 03:52:38;;;;;;;209.20;101.90;;;1.80;99.90;;;;;;5061335;28;20049;-78
2022/11/29 03:55:19;;;;;;;202.75;101.45;;;1.60;99.90;;;;;;5057652;28;20044;-79
2022/11/29 03:57:57;;;;;;;195.73;98.80;;;1.60;99.90;;;;;;5060407;28;20484;-78
2022/11/29 04:00:26;;;;;;;215.90;104.18;;;1.50;99.90;;;;;;5059652;28;20060;-78
2022/11/29 04:03:19;;;;;;;205.57;104.38;;;1.40;99.90;;;;;;5057554;28;20048;-79
2022/11/29 04:06:09;;;;;;;224.10;107.90;;;1.30;99.90;;;;;;5059723;28;20450;-79
2022/11/29 04:09:22;;;;;;;211.18;106.50;;;1.30;99.90;;;;;;5058719;28;20569;-79
2022/11/29 04:12:35;;;;;;;258.65;125.28;;;1.20;99.90;;;;;;5056866;28;20045;-77
2022/11/29 04:15:38;;;;;;;234.75;111.88;;;1.20;99.90;;;;;;5030455;28;20048;-76
2022/11/29 04:18:44;;;;;;;245.80;120.45;;;1.10;99.90;;;;;;5060440;28;20049;-76
2022/11/29 04:21:49;;;;;;;270.23;126.00;;;1.10;99.90;;;;;;5067415;28;20040;-75
2022/11/29 04:24:53;;;;;;;247.88;115.85;;;1.20;99.90;;;;;;5018988;28;20094;-73
2022/11/29 04:27:35;;;;;;;262.17;122.38;;;1.20;99.90;;;;;;5066896;28;20040;-78
2022/11/29 04:30:24;;;;;;;307.02;131.10;;;1.10;99.90;;;;;;5060110;28;20040;-77
2022/11/29 04:33:35;;;;;;;248.43;113.75;;;1.10;99.90;;;;;;5057896;28;20052;-78
2022/11/29 04:36:36;;;;;;;255.07;116.00;;;1.10;99.90;;;;;;5067533;28;20055;-75
2022/11/29 04:39:44;;;;;;;238.45;112.72;;;1.00;99.90;;;;;;5074275;28;20048;-76
2022/11/29 04:42:38;;;;;;;222.05;111.25;;;1.10;99.90;;;;;;5056959;28;20057;-78
2022/11/29 04:45:47;;;;;;;223.35;108.20;;;1.10;99.90;;;;;;5065536;28;20033;-76
2022/11/29 04:48:36;;;;;;;231.02;111.43;;;1.20;99.90;;;;;;5073980;28;20037;-78
2022/11/29 04:51:13;;;;;;;194.00;105.10;;;1.20;99.90;;;;;;5066641;28;20066;-78
2022/11/29 04:53:51;;;;;;;176.93;98.38;;;1.10;99.90;;;;;;5061414;28;20171;-79
2022/11/29 04:56:29;;;;;;;181.75;97.93;;;1.10;99.90;;;;;;5061126;28;20145;-76
2022/11/29 04:59:06;;;;;;;189.05;101.28;;;1.10;99.90;;;;;;5064305;28;20147;-77
2022/11/29 05:01:48;;;;;;;192.77;99.55;;;1.10;99.90;;;;;;5062143;28;20064;-78
2022/11/29 05:04:21;;;;;;;186.65;95.88;;;1.20;99.90;;;;;;5060165;28;20102;-77
2022/11/29 05:07:01;;;;;;;168.30;86.93;;;1.10;99.90;;;;;;5061986;28;20515;-76
2022/11/29 05:09:47;;;;;;;175.57;89.25;;;1.10;99.90;;;;;;5059900;28;20068;-79
2022/11/29 05:12:23;;;;;;;170.38;89.53;;;1.10;99.90;;;;;;5061059;28;20041;-77
2022/11/29 05:15:22;;;;;;;167.35;89.43;;;1.10;99.90;;;;;;5061084;28;20564;-80
2022/11/29 05:17:58;;;;;;;159.25;85.30;;;1.10;99.90;;;;;;5038450;28;20049;-79
2022/11/29 05:20:36;;;;;;;149.05;80.25;;;1.10;99.90;;;;;;5061865;28;20041;-78
2022/11/29 05:23:18;;;;;;;144.30;79.90;;;1.10;99.90;;;;;;5060748;28;20056;-79
2022/11/29 05:25:54;;;;;;;141.75;77.68;;;1.10;99.90;;;;;;5061706;28;20064;-75
2022/11/29 05:28:32;;;;;;;140.15;76.55;;;1.10;99.90;;;;;;5064403;28;20550;-76
2022/11/29 05:31:19;;;;;;;130.10;73.57;;;1.10;99.90;;;;;;5061128;28;20044;-77
2022/11/29 05:34:16;;;;;;;144.00;76.32;;;1.10;99.90;;;;;;5061091;28;20044;-79
2022/11/29 05:36:51;;;;;;;171.90;90.53;;;1.20;99.90;;;;;;5061512;28;20036;-77
2022/11/29 05:39:36;;;;;;;179.15;94.50;;;1.20;99.90;;;;;;5061242;28;20040;-78
2022/11/29 05:42:25;;;;;;;225.25;108.28;;;1.30;99.90;;;;;;5059409;28;20041;-78
2022/11/29 05:45:00;;;;;;;238.55;115.05;;;1.30;99.90;;;;;;5064090;28;20552;-75
2022/11/29 05:47:35;;;;;;;241.93;112.05;;;1.30;99.90;;;;;;5068318;28;20033;-74
2022/11/29 05:50:10;;;;;;;265.20;120.20;;;1.40;99.90;;;;;;5073497;28;20041;-77
2022/11/29 05:52:48;;;;;;;254.63;123.07;;;1.40;99.90;;;;;;5062575;28;20067;-77
2022/11/29 05:55:24;;;;;;;259.05;121.65;;;1.50;99.90;;;;;;5059967;28;20542;-76
2022/11/29 05:57:57;;;;;;;262.98;125.05;;;1.50;99.90;;;;;;5056679;28;20094;-78
2022/11/29 06:00:29;;;;;;;259.70;117.35;;;1.50;99.90;;;;;;5060097;28;20346;-77
2022/11/29 06:03:03;;;;;;;251.60;116.88;;;1.50;99.90;;;;;;5059293;28;20036;-76
2022/11/29 06:05:36;;;;;;;287.65;117.20;;;1.60;99.90;;;;;;5060992;28;20455;-79
2022/11/29 06:08:10;;;;;;;261.02;111.32;;;1.60;99.90;;;;;;5059918;28;20045;-77
2022/11/29 06:10:40;;;;;;;244.52;107.95;;;1.60;99.90;;;;;;5059546;28;20542;-76
2022/11/29 06:13:20;;;;;;;250.00;116.40;;;1.60;99.90;;;;;;5060447;28;20056;-77
2022/11/29 06:16:21;;;;;;;261.98;118.30;;;1.70;99.90;;;;;;5059382;28;20044;-78
2022/11/29 06:19:29;;;;;;;264.77;121.57;;;1.80;99.90;;;;;;5060174;28;20063;-79
2022/11/29 06:22:06;;;;;;;253.75;115.47;;;1.70;99.90;;;;;;5055391;28;20053;-77
2022/11/29 06:24:45;;;;;;;251.70;114.90;;;1.80;99.90;;;;;;5065990;28;20618;-74
2022/11/29 06:27:30;;;;;;;254.90;111.93;;;1.90;99.90;;;;;;5067280;28;20048;-78
2022/11/29 06:30:05;;;;;;;274.75;121.38;;;2.00;99.90;;;;;;5060530;28;20044;-76
2022/11/29 06:32:45;;;;;;;263.77;121.38;;;2.00;99.90;;;;;;5059092;28;20059;-77
2022/11/29 06:35:33;;;;;;;277.50;117.28;;;1.90;99.90;;;;;;5059140;28;20052;-77
2022/11/29 06:38:04;;;;;;;282.92;130.90;;;2.00;99.90;;;;;;5058928;28;20048;-76
2022/11/29 06:40:32;;;;;;;287.70;129.15;;;1.90;99.90;;;;;;5061042;28;20040;-74
2022/11/29 06:43:00;;;;;;;361.10;162.20;;;1.80;99.90;;;;;;5070126;28;20041;-74
2022/11/29 06:45:28;;;;;;;345.95;153.35;;;1.90;99.90;;;;;;5068334;28;20049;-77
2022/11/29 06:48:00;;;;;;;348.55;160.80;;;1.80;99.90;;;;;;5070027;28;20122;-78
2022/11/29 06:50:38;;;;;;;365.73;164.75;;;1.80;99.90;;;;;;5065918;28;20122;-78
2022/11/29 06:53:13;;;;;;;339.20;151.70;;;1.80;99.90;;;;;;5064903;28;20079;-76
2022/11/29 06:55:49;;;;;;;321.13;141.10;;;1.80;99.90;;;;;;5067393;28;20086;-75
2022/11/29 06:58:33;;;;;;;267.60;122.47;;;1.80;99.90;;;;;;5068011;28;20040;-75
2022/11/29 07:01:08;;;;;;;233.07;109.25;;;1.90;99.90;;;;;;5068693;28;20858;-76
2022/11/29 07:04:06;;;;;;;227.63;110.60;;;2.10;99.90;;;;;;5066720;28;20155;-77
2022/11/29 07:06:36;;;;;;;210.70;106.20;;;2.10;99.90;;;;;;5071851;28;20036;-76
2022/11/29 07:09:09;;;;;;;181.52;92.45;;;2.00;99.90;;;;;;5066670;28;20037;-77
2022/11/29 07:11:38;;;;;;;192.25;97.70;;;2.00;99.90;;;;;;5059451;28;20040;-74
2022/11/29 07:14:05;;;;;;;214.57;101.43;;;2.10;99.90;;;;;;5060822;28;20123;-76
2022/11/29 07:16:37;;;;;;;219.43;105.68;;;1.90;99.90;;;;;;5064098;28;20097;-76
2022/11/29 07:19:15;;;;;;;294.27;115.13;;;2.10;99.90;;;;;;5063010;28;20044;-78
2022/11/29 07:21:52;;;;;;;237.60;109.25;;;2.10;99.90;;;;;;5062412;28;20484;-73
2022/11/29 07:24:32;;;;;;;256.42;115.22;;;2.10;99.90;;;;;;5065240;28;20059;-76
2022/11/29 07:27:06;;;;;;;241.15;110.75;;;2.20;99.90;;;;;;5064206;28;20051;-77
2022/11/29 07:29:45;;;;;;;256.70;118.93;;;2.30;99.90;;;;;;5063492;28;20041;-78
2022/11/29 07:32:22;;;;;;;225.43;109.05;;;2.40;99.90;;;;;;5058589;28;20099;-77
2022/11/29 07:34:59;;;;;;;228.27;108.63;;;2.40;99.90;;;;;;5058927;28;20154;-78
2022/11/29 07:37:35;;;;;;;246.38;112.78;;;2.40;99.90;;;;;;5059178;28;20041;-77
2022/11/29 07:40:13;;;;;;;249.57;113.15;;;2.60;99.90;;;;;;5059437;28;20098;-78
2022/11/29 07:42:48;;;;;;;253.57;119.45;;;2.60;99.90;;;;;;5057287;28;20048;-75
2022/11/29 07:45:24;;;;;;;233.15;112.80;;;2.60;99.90;;;;;;5059804;28;20033;-76
2022/11/29 07:47:51;;;;;;;151.27;76.63;;;2.70;99.90;;;;;;5060358;28;20563;-77
2022/11/29 07:50:20;;;;;;;140.05;67.97;;;2.70;99.90;;;;;;5068043;28;20068;-76
2022/11/29 07:52:49;;;;;;;120.88;64.43;;;2.80;99.90;;;;;;5070619;28;20049;-74
2022/11/29 07:55:19;;;;;;;137.07;70.47;;;2.80;99.90;;;;;;5067588;28;20059;-73
2022/11/29 07:57:46;;;;;;;125.53;66.68;;;2.80;99.90;;;;;;5087575;28;20061;-76
2022/11/29 08:00:15;;;;;;;147.35;75.20;;;2.90;99.90;;;;;;5085296;28;20063;-77
2022/11/29 08:02:43;;;;;;;163.32;80.55;;;3.00;99.90;;;;;;5061233;28;20514;-75
2022/11/29 08:05:11;;;;;;;185.80;90.20;;;2.90;99.90;;;;;;5064995;28;20097;-75
2022/11/29 08:07:40;;;;;;;184.60;88.45;;;3.10;99.90;;;;;;5063886;28;20106;-76
2022/11/29 08:10:13;;;;;;;185.15;87.90;;;3.20;99.90;;;;;;5058895;28;20495;-75
2022/11/29 08:12:43;;;;;;;176.23;84.13;;;3.20;99.90;;;;;;5063449;28;20037;-74
2022/11/29 08:15:12;;;;;;;167.02;82.28;;;3.30;99.90;;;;;;5061610;28;20110;-75
2022/11/29 08:17:40;;;;;;;154.25;79.55;;;3.40;99.90;;;;;;5065508;28;20545;-77
2022/11/29 08:20:09;;;;;;;154.15;78.20;;;3.50;99.90;;;;;;5063492;28;20041;-77
2022/11/29 08:22:36;;;;;;;163.55;81.50;;;3.70;99.90;;;;;;5060625;28;20040;-75
2022/11/29 08:25:07;;;;;;;166.57;85.13;;;3.90;99.90;;;;;;5063832;28;20063;-76
2022/11/29 08:27:36;;;;;;;155.60;81.05;;;4.00;99.90;;;;;;5060536;28;20048;-77
2022/11/29 08:30:04;;;;;;;160.00;83.97;;;4.20;99.90;;;;;;5062166;28;20563;-78
2022/11/29 08:32:31;;;;;;;159.85;83.15;;;4.20;99.90;;;;;;5062904;28;20099;-77
2022/11/29 08:34:58;;;;;;;147.95;80.97;;;4.00;99.90;;;;;;5063400;28;20076;-74
2022/11/29 08:37:26;;;;;;;152.02;79.13;;;3.90;99.90;;;;;;5062284;28;20062;-77
2022/11/29 08:39:57;;;;;;;152.68;83.13;;;4.00;99.90;;;;;;5061300;28;20519;-77
2022/11/29 08:42:24;;;;;;;146.05;77.97;;;4.00;99.90;;;;;;5063363;28;20049;-77
2022/11/29 08:44:53;;;;;;;170.85;92.60;;;3.90;99.90;;;;;;5062244;28;20040;-76
2022/11/29 08:47:39;;;;;;;164.00;88.93;;;3.80;99.90;;;;;;5066569;28;20071;-75
2022/11/29 08:50:11;;;;;;;157.73;86.63;;;3.80;99.90;;;;;;5062591;28;20135;-77
2022/11/29 08:55:25;;;;;;;;;;;3.90;99.90;;;;;;5059698;28;20041;-77
2022/11/29 08:57:54;;;;;;;154.65;83.53;;;4.00;99.90;;;;;;5059697;28;19927;-77
2022/11/29 09:00:23;;;;;;;160.32;87.50;;;4.10;99.90;;;;;;5057751;28;20073;-80
2022/11/29 09:02:51;;;;;;;153.70;86.13;;;4.20;99.90;;;;;;5060433;28;20033;-76
2022/11/29 09:05:19;;;;;;;149.68;81.68;;;4.40;99.90;;;;;;5062151;28;20040;-75
2022/11/29 09:07:46;;;;;;;147.75;80.45;;;4.40;99.90;;;;;;5057688;28;20072;-77
2022/11/29 09:10:13;;;;;;;164.48;81.55;;;4.50;99.90;;;;;;5077479;22;20041;-79
2022/11/29 09:12:43;;;;;;;153.75;81.20;;;4.50;99.90;;;;;;5052121;28;20048;-80
2022/11/29 09:15:11;;;;;;;159.23;84.22;;;4.50;99.90;;;;;;5062131;28;20518;-79
2022/11/29 09:17:40;;;;;;;166.10;89.53;;;4.50;99.90;;;;;;5061977;28;20036;-77
2022/11/29 09:20:08;;;;;;;180.40;93.78;;;4.80;99.90;;;;;;5068817;28;20139;-79
2022/11/29 09:25:18;;;;;;;178.57;91.68;;;5.10;99.90;;;;;;5064514;28;20106;-82
2022/11/29 09:27:45;;;;;;;186.02;97.35;;;5.30;99.90;;;;;;5044196;28;20041;-81
2022/11/29 09:30:13;;;;;;;177.60;96.63;;;5.20;99.90;;;;;;5062981;28;20037;-83
2022/11/29 09:32:42;;;;;;;189.82;100.88;;;5.20;99.90;;;;;;5061999;28;20040;-82
2022/11/29 09:35:09;;;;;;;211.18;106.40;;;5.40;99.90;;;;;;5060935;28;20045;-82
2022/11/29 09:37:37;;;;;;;218.63;110.35;;;5.40;99.90;;;;;;5061275;28;20052;-81
2022/11/29 09:40:05;;;;;;;217.55;113.43;;;5.40;99.90;;;;;;5061008;28;20445;-82
2022/11/29 09:42:46;;;;;;;214.82;111.53;;;5.60;99.90;;;;;;5062072;28;20399;-81
2022/11/29 09:45:18;;;;;;;215.90;112.40;;;5.70;99.90;;;;;;5064455;28;20040;-83
2022/11/29 09:48:05;;;;;;;215.95;113.88;;;5.80;99.90;;;;;;5061679;28;20075;-81
2022/11/29 09:50:35;;;;;;;213.75;113.43;;;5.80;99.90;;;;;;5062654;28;20461;-79
2022/11/29 09:53:22;;;;;;;217.68;114.80;;;5.90;99.90;;;;;;5063094;28;20041;-80
2022/11/29 09:56:05;;;;;;;206.77;101.63;;;6.00;99.90;;;;;;5059999;28;20090;-81
2022/11/29 09:58:39;;;;;;;204.60;103.20;;;5.80;99.90;;;;;;5060604;28;20040;-80
2022/11/29 10:01:11;;;;;;;203.75;101.85;;;5.80;99.90;;;;;;5060148;28;20044;-81
2022/11/29 10:03:43;;;;;;;206.35;98.13;;;5.80;99.90;;;;;;5041448;28;20044;-79
2022/11/29 10:06:21;;;;;;;199.50;95.00;;;5.90;99.90;;;;;;5059652;28;20517;-80
2022/11/29 10:08:54;;;;;;;199.88;91.07;;;6.00;99.90;;;;;;5061052;28;20044;-80
2022/11/29 10:11:27;;;;;;;197.98;88.47;;;6.10;99.90;;;;;;5058160;28;20065;-79
2022/11/29 10:13:58;;;;;;;200.52;90.95;;;6.00;99.90;;;;;;5043189;28;20072;-81
2022/11/29 10:16:33;;;;;;;199.55;90.85;;;6.10;99.90;;;;;;5060190;28;20070;-81
2022/11/29 10:19:10;;;;;;;198.60;89.00;;;6.20;99.90;;;;;;5059828;28;20041;-81
2022/11/29 10:21:41;;;;;;;201.85;87.68;;;6.10;99.90;;;;;;5060332;28;20037;-79
2022/11/29 10:24:13;;;;;;;195.13;86.28;;;6.00;99.90;;;;;;5041877;28;20044;-79
2022/11/29 10:26:42;;;;;;;178.20;83.70;;;6.10;99.90;;;;;;5041697;28;20048;-79
2022/11/29 10:29:12;;;;;;;193.57;83.93;;;6.30;99.90;;;;;;5061156;28;20044;-83
2022/11/29 10:31:43;;;;;;;192.45;85.13;;;6.40;99.90;;;;;;5060852;28;20040;-81
2022/11/29 10:34:15;;;;;;;184.50;83.43;;;6.60;99.90;;;;;;5061836;28;20044;-80
2022/11/29 10:36:45;;;;;;;174.98;81.53;;;6.60;99.90;;;;;;5070096;28;20040;-79
2022/11/29 10:39:19;;;;;;;161.57;76.72;;;6.60;99.90;;;;;;5081060;28;20041;-81
2022/11/29 10:41:50;;;;;;;165.27;77.75;;;6.70;99.90;;;;;;5077802;28;20071;-81
2022/11/29 10:44:17;;;;;;;162.63;77.82;;;6.80;99.90;;;;;;5072030;28;20052;-81
2022/11/29 10:46:45;;;;;;;154.30;74.80;;;6.90;99.90;;;;;;5064013;28;20115;-81
2022/11/29 10:49:17;;;;;;;157.02;75.03;;;6.80;99.90;;;;;;5042725;28;20458;-79
2022/11/29 10:51:45;;;;;;;151.43;74.30;;;6.90;99.90;;;;;;5058442;28;20044;-80
2022/11/29 10:54:33;;;;;;;158.23;77.28;;;7.00;99.90;;;;;;5061559;28;20041;-79
2022/11/29 10:57:01;;;;;;;139.18;70.55;;;7.10;99.90;;;;;;5061846;28;20032;-81
2022/11/29 10:59:31;;;;;;;139.23;66.90;;;7.10;99.90;;;;;;5076562;28;20025;-79
2022/11/29 11:02:00;;;;;;;137.82;67.35;;;7.10;99.90;;;;;;5065973;28;20049;-80
2022/11/29 11:04:31;;;;;;;133.88;65.80;;;7.20;99.90;;;;;;5059368;28;20040;-81
2022/11/29 11:07:01;;;;;;;130.18;65.05;;;7.30;99.90;;;;;;5060527;28;20468;-81
2022/11/29 11:09:35;;;;;;;122.93;63.38;;;7.30;99.90;;;;;;5059480;28;20045;-80
2022/11/29 11:12:06;;;;;;;122.00;62.17;;;7.20;99.90;;;;;;5056388;28;20106;-80
2022/11/29 11:14:36;;;;;;;129.40;64.32;;;7.10;99.90;;;;;;5058548;28;20067;-80
2022/11/29 11:17:24;;;;;;;132.00;63.20;;;7.00;99.90;;;;;;5059612;28;20041;-82
2022/11/29 11:19:59;;;;;;;124.25;62.78;;;6.90;99.90;;;;;;5056697;28;20033;-80
2022/11/29 11:22:28;;;;;;;128.25;67.03;;;7.00;99.90;;;;;;5059476;28;20558;-78
2022/11/29 11:24:59;;;;;;;118.65;62.38;;;7.00;99.90;;;;;;5042156;28;20052;-80
2022/11/29 11:27:32;;;;;;;124.30;62.17;;;7.00;99.90;;;;;;5063121;28;20048;-79
2022/11/29 11:30:00;;;;;;;133.10;66.70;;;7.10;99.90;;;;;;5062778;28;20037;-78
2022/11/29 11:32:28;;;;;;;126.63;63.13;;;7.20;99.90;;;;;;5062528;28;20044;-80
2022/11/29 11:34:57;;;;;;;126.53;64.43;;;7.30;99.90;;;;;;5060787;28;20043;-80
2022/11/29 11:37:28;;;;;;;120.40;62.65;;;7.40;99.90;;;;;;5059633;28;20400;-79
2022/11/29 11:39:57;;;;;;;116.90;60.28;;;7.40;99.90;;;;;;5061016;28;20036;-78
2022/11/29 11:42:38;;;;;;;115.40;58.25;;;7.40;99.90;;;;;;5062990;28;20048;-82
2022/11/29 11:45:26;;;;;;;112.85;59.00;;;7.30;99.90;;;;;;5045903;28;20464;-79
2022/11/29 11:47:56;;;;;;;113.30;59.33;;;7.30;99.90;;;;;;5064937;28;20047;-80
2022/11/29 11:50:31;;;;;;;107.60;57.67;;;7.40;99.90;;;;;;5067833;28;20106;-79
2022/11/29 11:53:02;;;;;;;113.50;56.90;;;7.50;99.90;;;;;;5063392;28;20511;-80
2022/11/29 11:55:36;;;;;;;118.28;58.50;;;7.50;99.90;;;;;;5061474;28;20076;-82
2022/11/29 11:58:15;;;;;;;123.85;60.20;;;7.40;99.90;;;;;;5065358;28;20037;-81
2022/11/29 12:00:46;;;;;;;118.78;58.53;;;7.30;99.90;;;;;;5063022;28;20071;-79
2022/11/29 12:03:51;;;;;;;113.93;57.40;;;7.00;99.90;;;;;;5062188;28;20146;-81
2022/11/29 12:06:31;;;;;;;124.22;62.25;;;6.70;99.90;;;;;;5021783;28;20049;-80
2022/11/29 12:09:05;;;;;;;118.68;60.53;;;6.60;99.90;;;;;;5064188;28;20098;-80
2022/11/29 12:11:38;;;;;;;111.70;57.65;;;6.50;99.90;;;;;;5061049;28;20057;-80
2022/11/29 12:14:08;;;;;;;117.95;59.42;;;6.50;99.90;;;;;;5061835;28;20082;-78
2022/11/29 12:16:39;;;;;;;111.82;60.13;;;6.40;99.90;;;;;;5062232;28;20059;-79
2022/11/29 12:19:15;;;;;;;132.57;67.97;;;6.40;99.90;;;;;;5063252;28;20096;-77
2022/11/29 12:21:48;;;;;;;104.07;56.90;;;6.40;99.90;;;;;;5060795;28;20107;-78
2022/11/29 12:24:21;;;;;;;110.93;55.42;;;6.40;99.90;;;;;;5061925;28;20090;-80
2022/11/29 12:26:49;;;;;;;126.50;65.50;;;6.40;99.90;;;;;;5062886;28;20087;-78
2022/11/29 12:29:18;;;;;;;117.78;61.97;;;6.40;99.90;;;;;;5062250;28;20033;-78
2022/11/29 12:31:56;;;;;;;108.07;61.35;;;6.50;99.90;;;;;;5062015;28;20110;-79
2022/11/29 12:34:47;;;;;;;122.63;62.35;;;6.60;99.90;;;;;;5060404;28;20045;-79
2022/11/29 12:37:24;;;;;;;107.90;58.17;;;6.60;99.90;;;;;;5062599;28;20040;-77
2022/11/29 12:40:01;;;;;;;107.53;58.17;;;6.60;99.90;;;;;;5059577;28;20048;-78
2022/11/29 12:42:51;;;;;;;106.88;58.72;;;6.60;99.90;;;;;;5041750;28;20403;-78
2022/11/29 12:45:34;;;;;;;108.50;60.25;;;6.60;99.90;;;;;;5068930;28;20037;-78
2022/11/29 12:48:13;;;;;;;105.10;57.38;;;6.60;99.90;;;;;;5076147;28;20049;-80
2022/11/29 12:50:52;;;;;;;102.55;56.70;;;6.60;99.90;;;;;;5047287;28;20407;-81
2022/11/29 12:53:33;;;;;;;90.18;50.78;;;6.50;99.90;;;;;;5061452;28;20037;-79
2022/11/29 12:56:13;;;;;;;64.10;39.75;;;6.50;99.90;;;;;;5061965;28;20113;-80
2022/11/29 12:58:56;;;;;;;59.75;36.33;;;6.50;99.90;;;;;;5042461;28;20055;-80
2022/11/29 13:01:34;;;;;;;55.15;34.42;;;6.50;99.90;;;;;;5061827;28;20040;-78
2022/11/29 13:04:10;;;;;;;58.50;36.25;;;6.40;99.90;;;;;;5061196;28;20037;-80
2022/11/29 13:06:43;;;;;;;55.50;33.17;;;6.40;99.90;;;;;;5060761;28;20033;-78
2022/11/29 13:09:44;;;;;;;54.25;34.80;;;6.40;99.90;;;;;;5063160;28;20040;-81
2022/11/29 13:12:17;;;;;;;57.78;35.92;;;6.40;99.90;;;;;;5059846;28;20097;-82